Fruita, CO (81521)

9:02 PM MDT on October 01, 2014 (GMT -0600)
Comstock West | Change Station
CLOSE
Current Station
Personal Weather Station
Location: Fruita, CO
Elevation: 4507 ft
Nearby Weather Stations

Elev 4507 ft 39.17 °N, 108.74 °W | Updated 1 minute ago

Overcast
Overcast
48.6 °F
Feels Like 49 °F
N
2.0
Wind Variable Wind from SSE
Gusts 2.0 mph

Today
High -- | Low -- °F
--% Chance of Precip.
Yesterday
High -- | Low -- °F
Precip. -- in
7:10 AM 6:57 PM
First Quarter, 54% visible
Pressure 30.07 in
Visibility 10.0 miles
Clouds Mostly Cloudy 5500 ft
Overcast 7500 ft
Windchill 49 °F
Dew Point 42 °F
Humidity 79%
Rainfall 0.41 in
Snow Depth 1 in , 1 in , 0 in
UV 0 out of 12
Pollen 3.80 out of 12
Air Quality Not available.
Flu Activity Not available.
METAR KGJT 020253Z 07006KT 10SM BKN055 OVC075 08/04 A3011 RMK AO2 RAE32 TSE19 SLP181 P0002 60002 T00780039 53026

More Conditions Fewer Conditions

Pressure 30.07 in
Visibility 10.0 miles
Clouds Mostly Cloudy 5500 ft
Overcast 7500 ft
Windchill 49 °F
Dew Point 42 °F
Humidity 79%
Rainfall 0.41 in
Snow Depth 1 in , 1 in , 0 in
UV 0 out of 12
Pollen 3.80 out of 12
Air Quality Not available.
Flu Activity Not available.
METAR KGJT 020253Z 07006KT 10SM BKN055 OVC075 08/04 A3011 RMK AO2 RAE32 TSE19 SLP181 P0002 60002 T00780039 53026

More Conditions Fewer Conditions

10-Day Weather Forecast

Almanac

Astronomy

Oct. 01, 2014 Rise Set
Actual Time 7:10 AM MDT 6:57 PM MDT
Civil Twilight 6:44 AM MDT 7:24 PM MDT
Nautical Twilight 6:13 AM MDT 7:54 PM MDT
Astronomical Twilight 5:41 AM MDT 8:26 PM MDT
Moon 2:12 PM MDT (10/1) No Moon Set
Length of Visible Light 12h 39m
Length of Day
11h 46m
Tomorrow will be 2m 30s shorter.
First Quarter, 54% of the Moon is Illuminated
Today
First Quarter
Oct 8
Full
Oct 15
Last Quarter
Oct 23
New
Oct 30
First Quarter

Today's Extremes

State Highs State Lows

Community

WunderPhotos

Upload Photos

1,758,157 photos uploaded!

WunderBlogs® & News

Nearby

Snow Depth

Station Depth Elevation
Niwot 1 in 9910 ft
Berthoud Summit 1 in 11300 ft
Park Cone 0 in 9600 ft
Willow Creek Pass 0 in 9540 ft
Park Reservoir 1 in 9960 ft

Earthquake Activity

City Distance Mag. Time & Date
No recent earthquake activity has been reported nearby.
Minimum magnitude displayed is 2.5.

Coastal Water Temperatures

Place Temperature
No Stations Reporting

Nearby Weather Stations